sensor_id;sensor_type;location;lat;lon;timestamp;P1;durP1;ratioP1;P2;durP2;ratioP2
26486;SDS011;14425;56.136;40.360;2023-05-16T00:01:47;4.65;;;2.03;;
26486;SDS011;14425;56.136;40.360;2023-05-16T00:04:12;5.57;;;2.17;;
26486;SDS011;14425;56.136;40.360;2023-05-16T00:06:38;8.73;;;2.47;;
26486;SDS011;14425;56.136;40.360;2023-05-16T00:09:03;6.75;;;2.13;;
26486;SDS011;14425;56.136;40.360;2023-05-16T00:11:29;5.13;;;2.20;;
26486;SDS011;14425;56.136;40.360;2023-05-16T00:13:54;5.75;;;2.20;;
26486;SDS011;14425;56.136;40.360;2023-05-16T00:16:20;3.17;;;2.05;;
26486;SDS011;14425;56.136;40.360;2023-05-16T00:18:46;6.28;;;2.20;;
26486;SDS011;14425;56.136;40.360;2023-05-16T00:21:12;5.43;;;2.92;;
26486;SDS011;14425;56.136;40.360;2023-05-16T00:23:38;8.93;;;2.63;;
26486;SDS011;14425;56.136;40.360;2023-05-16T00:26:03;8.05;;;2.88;;
26486;SDS011;14425;56.136;40.360;2023-05-16T00:28:29;6.93;;;2.53;;
26486;SDS011;14425;56.136;40.360;2023-05-16T00:30:54;7.72;;;2.78;;
26486;SDS011;14425;56.136;40.360;2023-05-16T00:33:20;6.50;;;2.50;;
26486;SDS011;14425;56.136;40.360;2023-05-16T00:35:45;9.23;;;2.33;;
26486;SDS011;14425;56.136;40.360;2023-05-16T00:38:11;5.50;;;2.78;;
26486;SDS011;14425;56.136;40.360;2023-05-16T00:40:37;7.40;;;3.00;;
26486;SDS011;14425;56.136;40.360;2023-05-16T00:43:03;3.67;;;2.15;;
26486;SDS011;14425;56.136;40.360;2023-05-16T00:45:28;5.25;;;2.63;;
26486;SDS011;14425;56.136;40.360;2023-05-16T00:47:54;4.10;;;3.05;;
26486;SDS011;14425;56.136;40.360;2023-05-16T00:50:19;5.22;;;2.60;;
26486;SDS011;14425;56.136;40.360;2023-05-16T00:52:45;6.38;;;2.45;;
26486;SDS011;14425;56.136;40.360;2023-05-16T00:55:11;6.05;;;2.67;;
26486;SDS011;14425;56.136;40.360;2023-05-16T00:57:37;5.90;;;2.40;;
26486;SDS011;14425;56.136;40.360;2023-05-16T01:00:04;5.47;;;2.35;;
26486;SDS011;14425;56.136;40.360;2023-05-16T01:02:35;7.38;;;2.60;;
26486;SDS011;14425;56.136;40.360;2023-05-16T01:05:02;7.47;;;2.50;;
26486;SDS011;14425;56.136;40.360;2023-05-16T01:07:34;7.85;;;2.35;;
26486;SDS011;14425;56.136;40.360;2023-05-16T01:10:00;4.35;;;2.70;;
26486;SDS011;14425;56.136;40.360;2023-05-16T01:15:01;8.10;;;2.40;;
26486;SDS011;14425;56.136;40.360;2023-05-16T01:17:35;2.95;;;2.20;;
26486;SDS011;14425;56.136;40.360;2023-05-16T01:27:57;6.43;;;2.30;;
26486;SDS011;14425;56.136;40.360;2023-05-16T01:30:23;6.57;;;2.28;;
26486;SDS011;14425;56.136;40.360;2023-05-16T01:32:49;6.22;;;2.83;;
26486;SDS011;14425;56.136;40.360;2023-05-16T01:35:15;8.32;;;2.25;;
26486;SDS011;14425;56.136;40.360;2023-05-16T01:37:47;5.32;;;2.10;;
26486;SDS011;14425;56.136;40.360;2023-05-16T01:43:16;6.78;;;3.15;;
26486;SDS011;14425;56.136;40.360;2023-05-16T01:45:50;4.57;;;2.35;;
26486;SDS011;14425;56.136;40.360;2023-05-16T01:48:22;5.57;;;2.30;;
26486;SDS011;14425;56.136;40.360;2023-05-16T01:50:53;2.83;;;2.50;;
26486;SDS011;14425;56.136;40.360;2023-05-16T01:53:23;6.32;;;2.85;;
26486;SDS011;14425;56.136;40.360;2023-05-16T01:55:51;5.82;;;2.55;;
26486;SDS011;14425;56.136;40.360;2023-05-16T01:58:21;5.30;;;2.40;;
26486;SDS011;14425;56.136;40.360;2023-05-16T02:00:51;6.10;;;2.30;;
26486;SDS011;14425;56.136;40.360;2023-05-16T02:03:17;4.72;;;2.70;;
26486;SDS011;14425;56.136;40.360;2023-05-16T02:05:43;8.88;;;2.90;;
26486;SDS011;14425;56.136;40.360;2023-05-16T02:08:09;7.25;;;2.75;;
26486;SDS011;14425;56.136;40.360;2023-05-16T02:10:34;5.22;;;2.63;;
26486;SDS011;14425;56.136;40.360;2023-05-16T02:13:00;4.85;;;3.22;;
26486;SDS011;14425;56.136;40.360;2023-05-16T02:15:26;4.78;;;3.05;;
26486;SDS011;14425;56.136;40.360;2023-05-16T02:17:51;5.05;;;3.22;;
26486;SDS011;14425;56.136;40.360;2023-05-16T02:20:17;6.15;;;3.47;;
26486;SDS011;14425;56.136;40.360;2023-05-16T02:22:42;7.53;;;2.85;;
26486;SDS011;14425;56.136;40.360;2023-05-16T02:25:11;7.72;;;3.20;;
26486;SDS011;14425;56.136;40.360;2023-05-16T02:27:38;10.65;;;3.05;;
26486;SDS011;14425;56.136;40.360;2023-05-16T02:30:03;7.68;;;2.88;;
26486;SDS011;14425;56.136;40.360;2023-05-16T02:32:31;7.82;;;2.63;;
26486;SDS011;14425;56.136;40.360;2023-05-16T02:34:57;3.63;;;2.55;;
26486;SDS011;14425;56.136;40.360;2023-05-16T02:37:23;4.70;;;2.70;;
26486;SDS011;14425;56.136;40.360;2023-05-16T02:39:48;4.97;;;3.60;;
26486;SDS011;14425;56.136;40.360;2023-05-16T02:42:14;11.23;;;3.28;;
26486;SDS011;14425;56.136;40.360;2023-05-16T02:44:39;20.20;;;4.40;;
26486;SDS011;14425;56.136;40.360;2023-05-16T02:47:05;4.63;;;3.35;;
26486;SDS011;14425;56.136;40.360;2023-05-16T02:49:30;7.38;;;3.38;;
26486;SDS011;14425;56.136;40.360;2023-05-16T02:51:56;5.00;;;3.45;;
26486;SDS011;14425;56.136;40.360;2023-05-16T02:54:22;7.70;;;3.55;;
26486;SDS011;14425;56.136;40.360;2023-05-16T02:56:47;9.98;;;4.15;;
26486;SDS011;14425;56.136;40.360;2023-05-16T02:59:12;8.05;;;4.63;;
26486;SDS011;14425;56.136;40.360;2023-05-16T03:01:38;11.52;;;7.57;;
26486;SDS011;14425;56.136;40.360;2023-05-16T03:04:04;8.25;;;4.88;;
26486;SDS011;14425;56.136;40.360;2023-05-16T03:06:30;16.23;;;8.00;;
26486;SDS011;14425;56.136;40.360;2023-05-16T03:08:56;17.67;;;7.47;;
26486;SDS011;14425;56.136;40.360;2023-05-16T03:11:21;7.32;;;5.47;;
26486;SDS011;14425;56.136;40.360;2023-05-16T03:13:50;10.02;;;5.90;;
26486;SDS011;14425;56.136;40.360;2023-05-16T03:16:15;12.57;;;5.15;;
26486;SDS011;14425;56.136;40.360;2023-05-16T03:18:41;10.52;;;4.70;;
26486;SDS011;14425;56.136;40.360;2023-05-16T03:21:09;7.07;;;4.72;;
26486;SDS011;14425;56.136;40.360;2023-05-16T03:23:34;9.70;;;5.13;;
26486;SDS011;14425;56.136;40.360;2023-05-16T03:26:00;10.88;;;4.20;;
26486;SDS011;14425;56.136;40.360;2023-05-16T03:28:25;10.25;;;4.95;;
26486;SDS011;14425;56.136;40.360;2023-05-16T03:30:51;17.45;;;4.38;;
26486;SDS011;14425;56.136;40.360;2023-05-16T03:33:17;7.07;;;3.83;;
26486;SDS011;14425;56.136;40.360;2023-05-16T03:35:43;11.98;;;3.90;;
26486;SDS011;14425;56.136;40.360;2023-05-16T03:38:09;15.80;;;4.85;;
26486;SDS011;14425;56.136;40.360;2023-05-16T03:40:35;8.02;;;3.58;;
26486;SDS011;14425;56.136;40.360;2023-05-16T03:43:01;13.43;;;3.78;;
26486;SDS011;14425;56.136;40.360;2023-05-16T03:45:27;12.93;;;5.00;;
26486;SDS011;14425;56.136;40.360;2023-05-16T03:47:53;13.27;;;5.78;;
26486;SDS011;14425;56.136;40.360;2023-05-16T03:50:19;29.98;;;9.30;;
26486;SDS011;14425;56.136;40.360;2023-05-16T03:52:45;27.20;;;10.60;;
26486;SDS011;14425;56.136;40.360;2023-05-16T03:55:10;22.45;;;9.80;;
26486;SDS011;14425;56.136;40.360;2023-05-16T03:57:39;26.98;;;11.00;;
26486;SDS011;14425;56.136;40.360;2023-05-16T04:00:06;29.98;;;12.23;;
26486;SDS011;14425;56.136;40.360;2023-05-16T04:02:33;30.92;;;11.75;;
26486;SDS011;14425;56.136;40.360;2023-05-16T04:04:59;45.03;;;13.93;;
26486;SDS011;14425;56.136;40.360;2023-05-16T04:07:24;40.58;;;11.73;;
26486;SDS011;14425;56.136;40.360;2023-05-16T04:09:50;27.00;;;10.23;;
26486;SDS011;14425;56.136;40.360;2023-05-16T04:12:16;19.30;;;7.97;;
26486;SDS011;14425;56.136;40.360;2023-05-16T04:14:41;21.67;;;8.52;;
26486;SDS011;14425;56.136;40.360;2023-05-16T04:17:07;15.63;;;6.30;;
26486;SDS011;14425;56.136;40.360;2023-05-16T04:19:32;12.68;;;5.20;;
26486;SDS011;14425;56.136;40.360;2023-05-16T04:21:58;18.38;;;5.50;;
26486;SDS011;14425;56.136;40.360;2023-05-16T04:24:23;13.70;;;5.18;;
26486;SDS011;14425;56.136;40.360;2023-05-16T04:26:51;17.15;;;4.97;;
26486;SDS011;14425;56.136;40.360;2023-05-16T04:29:16;12.20;;;4.80;;
26486;SDS011;14425;56.136;40.360;2023-05-16T04:31:42;12.00;;;4.70;;
26486;SDS011;14425;56.136;40.360;2023-05-16T04:34:07;9.65;;;4.18;;
26486;SDS011;14425;56.136;40.360;2023-05-16T04:36:33;13.50;;;3.80;;
26486;SDS011;14425;56.136;40.360;2023-05-16T04:38:59;9.27;;;3.40;;
26486;SDS011;14425;56.136;40.360;2023-05-16T04:41:25;10.25;;;3.75;;
26486;SDS011;14425;56.136;40.360;2023-05-16T04:43:50;8.70;;;3.28;;
26486;SDS011;14425;56.136;40.360;2023-05-16T04:46:17;5.82;;;2.55;;
26486;SDS011;14425;56.136;40.360;2023-05-16T04:48:42;6.35;;;2.53;;
26486;SDS011;14425;56.136;40.360;2023-05-16T04:51:08;9.98;;;2.97;;
26486;SDS011;14425;56.136;40.360;2023-05-16T04:53:33;3.30;;;2.50;;
26486;SDS011;14425;56.136;40.360;2023-05-16T04:55:59;5.32;;;2.60;;
26486;SDS011;14425;56.136;40.360;2023-05-16T04:58:25;6.45;;;2.67;;
26486;SDS011;14425;56.136;40.360;2023-05-16T05:00:50;4.32;;;1.88;;
26486;SDS011;14425;56.136;40.360;2023-05-16T05:03:16;5.35;;;1.48;;
26486;SDS011;14425;56.136;40.360;2023-05-16T05:05:42;4.00;;;1.60;;
26486;SDS011;14425;56.136;40.360;2023-05-16T05:08:08;7.53;;;1.80;;
26486;SDS011;14425;56.136;40.360;2023-05-16T05:10:34;3.83;;;1.40;;
26486;SDS011;14425;56.136;40.360;2023-05-16T05:13:00;3.42;;;1.50;;
26486;SDS011;14425;56.136;40.360;2023-05-16T05:15:26;6.55;;;1.40;;
26486;SDS011;14425;56.136;40.360;2023-05-16T05:17:52;2.05;;;1.30;;
26486;SDS011;14425;56.136;40.360;2023-05-16T05:20:18;4.20;;;1.40;;
26486;SDS011;14425;56.136;40.360;2023-05-16T05:22:43;1.67;;;1.50;;
26486;SDS011;14425;56.136;40.360;2023-05-16T05:25:09;4.65;;;1.20;;
26486;SDS011;14425;56.136;40.360;2023-05-16T05:27:35;3.17;;;1.35;;
26486;SDS011;14425;56.136;40.360;2023-05-16T05:30:01;2.83;;;1.17;;
26486;SDS011;14425;56.136;40.360;2023-05-16T05:32:29;6.00;;;1.25;;
26486;SDS011;14425;56.136;40.360;2023-05-16T05:34:55;2.65;;;1.20;;
26486;SDS011;14425;56.136;40.360;2023-05-16T05:37:20;3.75;;;1.30;;
26486;SDS011;14425;56.136;40.360;2023-05-16T05:39:46;2.53;;;1.00;;
26486;SDS011;14425;56.136;40.360;2023-05-16T05:42:11;1.60;;;1.00;;
26486;SDS011;14425;56.136;40.360;2023-05-16T05:44:37;1.38;;;1.17;;
26486;SDS011;14425;56.136;40.360;2023-05-16T05:47:03;3.17;;;1.00;;
26486;SDS011;14425;56.136;40.360;2023-05-16T05:49:30;4.68;;;1.50;;
26486;SDS011;14425;56.136;40.360;2023-05-16T05:51:56;1.85;;;1.13;;
26486;SDS011;14425;56.136;40.360;2023-05-16T05:54:21;1.38;;;0.95;;
26486;SDS011;14425;56.136;40.360;2023-05-16T05:56:47;2.20;;;0.63;;
26486;SDS011;14425;56.136;40.360;2023-05-16T05:59:13;1.50;;;1.00;;
26486;SDS011;14425;56.136;40.360;2023-05-16T06:01:39;8.70;;;1.10;;
26486;SDS011;14425;56.136;40.360;2023-05-16T06:04:05;1.25;;;1.00;;
26486;SDS011;14425;56.136;40.360;2023-05-16T06:06:31;1.85;;;0.90;;
26486;SDS011;14425;56.136;40.360;2023-05-16T06:08:57;1.35;;;0.90;;
26486;SDS011;14425;56.136;40.360;2023-05-16T06:11:23;3.88;;;0.80;;
26486;SDS011;14425;56.136;40.360;2023-05-16T06:13:49;2.47;;;0.80;;
26486;SDS011;14425;56.136;40.360;2023-05-16T06:16:18;1.60;;;0.70;;
26486;SDS011;14425;56.136;40.360;2023-05-16T06:18:44;0.90;;;0.60;;
26486;SDS011;14425;56.136;40.360;2023-05-16T06:21:09;4.88;;;1.30;;
26486;SDS011;14425;56.136;40.360;2023-05-16T06:23:35;7.93;;;1.00;;
26486;SDS011;14425;56.136;40.360;2023-05-16T06:26:01;3.53;;;0.75;;
26486;SDS011;14425;56.136;40.360;2023-05-16T06:28:27;2.40;;;0.60;;
26486;SDS011;14425;56.136;40.360;2023-05-16T06:30:53;1.38;;;1.27;;
26486;SDS011;14425;56.136;40.360;2023-05-16T06:33:19;1.02;;;0.65;;
26486;SDS011;14425;56.136;40.360;2023-05-16T06:35:44;2.17;;;0.80;;
26486;SDS011;14425;56.136;40.360;2023-05-16T06:38:12;0.88;;;0.50;;
26486;SDS011;14425;56.136;40.360;2023-05-16T06:40:37;1.40;;;0.60;;
26486;SDS011;14425;56.136;40.360;2023-05-16T06:43:03;1.88;;;1.30;;
26486;SDS011;14425;56.136;40.360;2023-05-16T06:45:28;3.80;;;0.80;;
26486;SDS011;14425;56.136;40.360;2023-05-16T06:47:54;5.45;;;0.70;;
26486;SDS011;14425;56.136;40.360;2023-05-16T06:50:21;7.63;;;0.93;;
26486;SDS011;14425;56.136;40.360;2023-05-16T06:52:46;2.60;;;0.90;;
26486;SDS011;14425;56.136;40.360;2023-05-16T06:55:12;0.80;;;0.60;;
26486;SDS011;14425;56.136;40.360;2023-05-16T06:57:38;2.25;;;0.63;;
26486;SDS011;14425;56.136;40.360;2023-05-16T07:00:05;1.42;;;0.82;;
26486;SDS011;14425;56.136;40.360;2023-05-16T07:02:34;1.45;;;0.70;;
26486;SDS011;14425;56.136;40.360;2023-05-16T07:05:00;1.40;;;0.75;;
26486;SDS011;14425;56.136;40.360;2023-05-16T07:07:29;2.40;;;1.67;;
26486;SDS011;14425;56.136;40.360;2023-05-16T07:09:54;2.85;;;1.50;;
26486;SDS011;14425;56.136;40.360;2023-05-16T07:12:20;0.90;;;0.80;;
26486;SDS011;14425;56.136;40.360;2023-05-16T07:14:46;5.15;;;1.73;;
26486;SDS011;14425;56.136;40.360;2023-05-16T07:17:11;1.73;;;1.05;;
26486;SDS011;14425;56.136;40.360;2023-05-16T07:19:37;2.75;;;0.82;;
26486;SDS011;14425;56.136;40.360;2023-05-16T07:22:03;2.75;;;0.80;;
26486;SDS011;14425;56.136;40.360;2023-05-16T07:24:29;4.20;;;1.55;;
26486;SDS011;14425;56.136;40.360;2023-05-16T07:26:54;3.42;;;0.80;;
26486;SDS011;14425;56.136;40.360;2023-05-16T07:29:20;3.13;;;0.80;;
26486;SDS011;14425;56.136;40.360;2023-05-16T07:31:45;5.97;;;0.70;;
26486;SDS011;14425;56.136;40.360;2023-05-16T07:34:11;4.97;;;1.08;;
26486;SDS011;14425;56.136;40.360;2023-05-16T07:36:37;6.65;;;1.15;;
26486;SDS011;14425;56.136;40.360;2023-05-16T07:39:03;18.60;;;2.50;;
26486;SDS011;14425;56.136;40.360;2023-05-16T07:41:29;2.90;;;0.93;;
26486;SDS011;14425;56.136;40.360;2023-05-16T07:43:54;9.23;;;1.75;;
26486;SDS011;14425;56.136;40.360;2023-05-16T07:46:20;5.43;;;1.00;;
26486;SDS011;14425;56.136;40.360;2023-05-16T07:48:46;7.25;;;1.35;;
26486;SDS011;14425;56.136;40.360;2023-05-16T07:51:12;4.93;;;0.90;;
26486;SDS011;14425;56.136;40.360;2023-05-16T07:53:37;2.47;;;0.68;;
26486;SDS011;14425;56.136;40.360;2023-05-16T07:56:03;1.67;;;1.30;;
26486;SDS011;14425;56.136;40.360;2023-05-16T07:58:30;3.13;;;0.73;;
26486;SDS011;14425;56.136;40.360;2023-05-16T08:00:56;6.95;;;1.02;;
26486;SDS011;14425;56.136;40.360;2023-05-16T08:03:22;3.40;;;1.48;;
26486;SDS011;14425;56.136;40.360;2023-05-16T08:05:48;1.25;;;1.10;;
26486;SDS011;14425;56.136;40.360;2023-05-16T08:08:13;1.50;;;0.90;;
26486;SDS011;14425;56.136;40.360;2023-05-16T08:10:39;2.08;;;0.70;;
26486;SDS011;14425;56.136;40.360;2023-05-16T08:13:04;1.55;;;0.60;;
26486;SDS011;14425;56.136;40.360;2023-05-16T08:15:30;2.78;;;0.90;;
26486;SDS011;14425;56.136;40.360;2023-05-16T08:17:56;3.88;;;1.35;;
26486;SDS011;14425;56.136;40.360;2023-05-16T08:20:23;2.70;;;1.10;;
26486;SDS011;14425;56.136;40.360;2023-05-16T08:22:50;7.03;;;1.10;;
26486;SDS011;14425;56.136;40.360;2023-05-16T08:25:16;3.43;;;1.10;;
26486;SDS011;14425;56.136;40.360;2023-05-16T08:27:43;7.97;;;2.25;;
26486;SDS011;14425;56.136;40.360;2023-05-16T08:30:09;1.25;;;0.80;;
26486;SDS011;14425;56.136;40.360;2023-05-16T08:32:36;13.85;;;1.60;;
26486;SDS011;14425;56.136;40.360;2023-05-16T08:35:01;32.30;;;4.68;;
26486;SDS011;14425;56.136;40.360;2023-05-16T08:37:29;4.68;;;1.10;;
26486;SDS011;14425;56.136;40.360;2023-05-16T08:39:54;4.22;;;1.02;;
26486;SDS011;14425;56.136;40.360;2023-05-16T08:42:20;8.57;;;1.50;;
26486;SDS011;14425;56.136;40.360;2023-05-16T08:44:46;2.00;;;1.00;;
26486;SDS011;14425;56.136;40.360;2023-05-16T08:47:13;2.72;;;1.10;;
26486;SDS011;14425;56.136;40.360;2023-05-16T08:49:43;3.28;;;1.10;;
26486;SDS011;14425;56.136;40.360;2023-05-16T08:52:17;2.88;;;0.80;;
26486;SDS011;14425;56.136;40.360;2023-05-16T08:54:45;2.55;;;0.95;;
26486;SDS011;14425;56.136;40.360;2023-05-16T08:57:12;3.88;;;1.05;;
26486;SDS011;14425;56.136;40.360;2023-05-16T08:59:38;10.13;;;1.80;;
26486;SDS011;14425;56.136;40.360;2023-05-16T09:02:05;4.00;;;1.20;;
26486;SDS011;14425;56.136;40.360;2023-05-16T09:04:30;8.02;;;1.85;;
26486;SDS011;14425;56.136;40.360;2023-05-16T09:06:56;2.15;;;1.20;;
26486;SDS011;14425;56.136;40.360;2023-05-16T09:09:22;2.35;;;0.98;;
26486;SDS011;14425;56.136;40.360;2023-05-16T09:11:49;14.70;;;1.73;;
26486;SDS011;14425;56.136;40.360;2023-05-16T09:14:16;1.95;;;0.93;;
26486;SDS011;14425;56.136;40.360;2023-05-16T09:16:43;3.88;;;1.08;;
26486;SDS011;14425;56.136;40.360;2023-05-16T09:19:11;2.00;;;0.85;;
26486;SDS011;14425;56.136;40.360;2023-05-16T09:21:37;7.93;;;1.13;;
26486;SDS011;14425;56.136;40.360;2023-05-16T09:24:05;6.70;;;1.30;;
26486;SDS011;14425;56.136;40.360;2023-05-16T09:26:32;1.20;;;0.98;;
26486;SDS011;14425;56.136;40.360;2023-05-16T09:28:59;4.97;;;1.17;;
26486;SDS011;14425;56.136;40.360;2023-05-16T09:31:26;2.13;;;1.10;;
26486;SDS011;14425;56.136;40.360;2023-05-16T09:33:55;2.63;;;0.90;;
26486;SDS011;14425;56.136;40.360;2023-05-16T09:36:21;2.90;;;0.90;;
26486;SDS011;14425;56.136;40.360;2023-05-16T09:38:48;3.78;;;1.80;;
26486;SDS011;14425;56.136;40.360;2023-05-16T09:41:15;10.00;;;2.75;;
26486;SDS011;14425;56.136;40.360;2023-05-16T09:43:41;7.50;;;1.10;;
26486;SDS011;14425;56.136;40.360;2023-05-16T09:46:12;3.38;;;1.23;;
26486;SDS011;14425;56.136;40.360;2023-05-16T09:51:06;2.38;;;0.90;;
26486;SDS011;14425;56.136;40.360;2023-05-16T09:53:32;1.10;;;0.95;;
26486;SDS011;14425;56.136;40.360;2023-05-16T09:56:04;5.57;;;1.10;;
26486;SDS011;14425;56.136;40.360;2023-05-16T09:58:33;4.43;;;1.70;;
26486;SDS011;14425;56.136;40.360;2023-05-16T10:01:00;3.85;;;1.05;;
26486;SDS011;14425;56.136;40.360;2023-05-16T10:03:26;3.42;;;1.10;;
26486;SDS011;14425;56.136;40.360;2023-05-16T10:05:53;3.97;;;0.93;;
26486;SDS011;14425;56.136;40.360;2023-05-16T10:08:30;2.15;;;1.10;;
26486;SDS011;14425;56.136;40.360;2023-05-16T10:10:57;2.75;;;1.05;;
26486;SDS011;14425;56.136;40.360;2023-05-16T10:13:23;3.72;;;1.33;;
26486;SDS011;14425;56.136;40.360;2023-05-16T10:15:53;1.38;;;0.80;;
26486;SDS011;14425;56.136;40.360;2023-05-16T10:18:20;5.55;;;1.10;;
26486;SDS011;14425;56.136;40.360;2023-05-16T10:20:47;1.00;;;0.80;;
26486;SDS011;14425;56.136;40.360;2023-05-16T10:23:19;1.25;;;0.90;;
26486;SDS011;14425;56.136;40.360;2023-05-16T10:25:47;6.85;;;1.30;;
26486;SDS011;14425;56.136;40.360;2023-05-16T10:28:14;2.88;;;0.82;;
26486;SDS011;14425;56.136;40.360;2023-05-16T10:30:41;2.20;;;0.90;;
26486;SDS011;14425;56.136;40.360;2023-05-16T10:33:15;1.55;;;0.80;;
26486;SDS011;14425;56.136;40.360;2023-05-16T10:35:42;1.95;;;1.15;;
26486;SDS011;14425;56.136;40.360;2023-05-16T10:38:09;2.67;;;1.10;;
26486;SDS011;14425;56.136;40.360;2023-05-16T10:40:37;5.18;;;1.10;;
26486;SDS011;14425;56.136;40.360;2023-05-16T10:43:04;2.83;;;1.02;;
26486;SDS011;14425;56.136;40.360;2023-05-16T10:45:32;3.55;;;1.27;;
26486;SDS011;14425;56.136;40.360;2023-05-16T10:47:59;1.40;;;0.73;;
26486;SDS011;14425;56.136;40.360;2023-05-16T10:58:23;0.80;;;0.80;;
26486;SDS011;14425;56.136;40.360;2023-05-16T11:00:59;1.58;;;0.95;;
26486;SDS011;14425;56.136;40.360;2023-05-16T11:06:30;8.00;;;1.23;;
26486;SDS011;14425;56.136;40.360;2023-05-16T11:11:43;3.33;;;1.02;;
26486;SDS011;14425;56.136;40.360;2023-05-16T11:14:33;1.85;;;1.13;;
26486;SDS011;14425;56.136;40.360;2023-05-16T11:27:21;2.45;;;1.10;;
26486;SDS011;14425;56.136;40.360;2023-05-16T11:30:10;2.15;;;1.15;;
26486;SDS011;14425;56.136;40.360;2023-05-16T11:32:38;1.67;;;1.13;;
26486;SDS011;14425;56.136;40.360;2023-05-16T11:35:06;0.98;;;0.98;;
26486;SDS011;14425;56.136;40.360;2023-05-16T11:37:33;3.40;;;1.10;;
26486;SDS011;14425;56.136;40.360;2023-05-16T11:40:06;1.90;;;0.90;;
26486;SDS011;14425;56.136;40.360;2023-05-16T11:42:35;1.60;;;0.95;;
26486;SDS011;14425;56.136;40.360;2023-05-16T11:45:03;2.85;;;1.13;;
26486;SDS011;14425;56.136;40.360;2023-05-16T11:50:02;3.22;;;1.70;;
26486;SDS011;14425;56.136;40.360;2023-05-16T11:52:32;1.13;;;1.00;;
26486;SDS011;14425;56.136;40.360;2023-05-16T11:54:57;2.90;;;1.40;;
26486;SDS011;14425;56.136;40.360;2023-05-16T11:57:26;3.00;;;1.02;;
26486;SDS011;14425;56.136;40.360;2023-05-16T11:59:52;1.50;;;1.40;;
26486;SDS011;14425;56.136;40.360;2023-05-16T12:02:17;1.80;;;1.05;;
26486;SDS011;14425;56.136;40.360;2023-05-16T12:04:46;2.75;;;1.67;;
26486;SDS011;14425;56.136;40.360;2023-05-16T12:07:14;1.52;;;1.00;;
26486;SDS011;14425;56.136;40.360;2023-05-16T12:09:40;2.05;;;1.10;;
26486;SDS011;14425;56.136;40.360;2023-05-16T12:12:06;2.53;;;1.13;;
26486;SDS011;14425;56.136;40.360;2023-05-16T12:14:31;3.15;;;1.08;;
26486;SDS011;14425;56.136;40.360;2023-05-16T12:16:57;1.02;;;0.88;;
26486;SDS011;14425;56.136;40.360;2023-05-16T12:19:23;2.25;;;1.27;;
26486;SDS011;14425;56.136;40.360;2023-05-16T12:21:52;1.45;;;1.17;;
26486;SDS011;14425;56.136;40.360;2023-05-16T12:24:18;1.67;;;0.80;;
26486;SDS011;14425;56.136;40.360;2023-05-16T12:26:44;2.67;;;1.05;;
26486;SDS011;14425;56.136;40.360;2023-05-16T12:29:10;1.15;;;0.93;;
26486;SDS011;14425;56.136;40.360;2023-05-16T12:31:37;3.55;;;1.20;;
26486;SDS011;14425;56.136;40.360;2023-05-16T12:34:04;2.17;;;1.33;;
26486;SDS011;14425;56.136;40.360;2023-05-16T12:36:38;1.63;;;1.20;;
26486;SDS011;14425;56.136;40.360;2023-05-16T12:39:05;2.33;;;1.30;;
26486;SDS011;14425;56.136;40.360;2023-05-16T12:41:32;3.03;;;1.27;;
26486;SDS011;14425;56.136;40.360;2023-05-16T12:44:15;0.80;;;0.80;;
26486;SDS011;14425;56.136;40.360;2023-05-16T12:46:48;3.28;;;1.33;;
26486;SDS011;14425;56.136;40.360;2023-05-16T12:49:19;4.70;;;1.10;;
26486;SDS011;14425;56.136;40.360;2023-05-16T12:51:49;1.33;;;1.13;;
26486;SDS011;14425;56.136;40.360;2023-05-16T12:54:15;1.90;;;1.20;;
26486;SDS011;14425;56.136;40.360;2023-05-16T12:56:41;6.90;;;1.40;;
26486;SDS011;14425;56.136;40.360;2023-05-16T12:59:08;2.03;;;1.58;;
26486;SDS011;14425;56.136;40.360;2023-05-16T13:01:36;3.67;;;1.52;;
26486;SDS011;14425;56.136;40.360;2023-05-16T13:04:03;3.33;;;1.33;;
26486;SDS011;14425;56.136;40.360;2023-05-16T13:06:30;5.53;;;2.05;;
26486;SDS011;14425;56.136;40.360;2023-05-16T13:08:57;1.58;;;1.30;;
26486;SDS011;14425;56.136;40.360;2023-05-16T13:11:23;2.22;;;1.40;;
26486;SDS011;14425;56.136;40.360;2023-05-16T13:13:49;7.07;;;1.92;;
26486;SDS011;14425;56.136;40.360;2023-05-16T13:16:14;14.90;;;3.08;;
26486;SDS011;14425;56.136;40.360;2023-05-16T13:18:40;2.00;;;1.80;;
26486;SDS011;14425;56.136;40.360;2023-05-16T13:21:06;4.95;;;1.50;;
26486;SDS011;14425;56.136;40.360;2023-05-16T13:23:31;7.82;;;1.70;;
26486;SDS011;14425;56.136;40.360;2023-05-16T13:25:57;1.83;;;1.45;;
26486;SDS011;14425;56.136;40.360;2023-05-16T13:28:23;6.80;;;1.55;;
26486;SDS011;14425;56.136;40.360;2023-05-16T13:30:49;1.60;;;1.50;;
26486;SDS011;14425;56.136;40.360;2023-05-16T13:33:15;2.10;;;1.48;;
26486;SDS011;14425;56.136;40.360;2023-05-16T13:35:42;4.47;;;1.27;;
26486;SDS011;14425;56.136;40.360;2023-05-16T13:38:07;4.00;;;1.35;;
26486;SDS011;14425;56.136;40.360;2023-05-16T13:40:33;5.25;;;1.63;;
26486;SDS011;14425;56.136;40.360;2023-05-16T13:42:59;2.08;;;1.42;;
26486;SDS011;14425;56.136;40.360;2023-05-16T13:45:25;4.60;;;1.52;;
26486;SDS011;14425;56.136;40.360;2023-05-16T13:47:51;3.65;;;1.58;;
26486;SDS011;14425;56.136;40.360;2023-05-16T13:50:17;3.45;;;1.42;;
26486;SDS011;14425;56.136;40.360;2023-05-16T13:52:42;4.88;;;1.50;;
26486;SDS011;14425;56.136;40.360;2023-05-16T13:55:08;3.47;;;1.40;;
26486;SDS011;14425;56.136;40.360;2023-05-16T13:57:34;2.63;;;2.42;;
26486;SDS011;14425;56.136;40.360;2023-05-16T14:00:01;1.92;;;1.40;;
26486;SDS011;14425;56.136;40.360;2023-05-16T14:02:32;2.13;;;1.13;;
26486;SDS011;14425;56.136;40.360;2023-05-16T14:04:57;1.95;;;1.38;;
26486;SDS011;14425;56.136;40.360;2023-05-16T14:07:23;2.25;;;1.33;;
26486;SDS011;14425;56.136;40.360;2023-05-16T14:09:49;1.27;;;1.17;;
26486;SDS011;14425;56.136;40.360;2023-05-16T14:12:16;1.55;;;1.30;;
26486;SDS011;14425;56.136;40.360;2023-05-16T14:14:42;2.05;;;1.40;;
26486;SDS011;14425;56.136;40.360;2023-05-16T14:17:08;5.10;;;1.52;;
26486;SDS011;14425;56.136;40.360;2023-05-16T14:19:33;3.08;;;1.63;;
26486;SDS011;14425;56.136;40.360;2023-05-16T14:21:59;2.67;;;1.20;;
26486;SDS011;14425;56.136;40.360;2023-05-16T14:24:25;2.08;;;1.30;;
26486;SDS011;14425;56.136;40.360;2023-05-16T14:26:50;1.60;;;1.50;;
26486;SDS011;14425;56.136;40.360;2023-05-16T14:29:19;1.95;;;1.42;;
26486;SDS011;14425;56.136;40.360;2023-05-16T14:31:44;2.45;;;1.60;;
26486;SDS011;14425;56.136;40.360;2023-05-16T14:34:11;5.88;;;1.70;;
26486;SDS011;14425;56.136;40.360;2023-05-16T14:36:36;2.80;;;1.30;;
26486;SDS011;14425;56.136;40.360;2023-05-16T14:39:02;3.45;;;1.45;;
26486;SDS011;14425;56.136;40.360;2023-05-16T14:41:28;1.63;;;1.40;;
26486;SDS011;14425;56.136;40.360;2023-05-16T14:43:53;2.67;;;1.33;;
26486;SDS011;14425;56.136;40.360;2023-05-16T14:46:20;3.85;;;1.50;;
26486;SDS011;14425;56.136;40.360;2023-05-16T14:48:45;4.53;;;1.50;;
26486;SDS011;14425;56.136;40.360;2023-05-16T14:51:11;3.22;;;1.83;;
26486;SDS011;14425;56.136;40.360;2023-05-16T14:53:36;2.92;;;1.50;;
26486;SDS011;14425;56.136;40.360;2023-05-16T14:56:02;3.70;;;1.90;;
26486;SDS011;14425;56.136;40.360;2023-05-16T14:58:28;3.28;;;1.60;;
26486;SDS011;14425;56.136;40.360;2023-05-16T15:00:54;4.03;;;1.38;;
26486;SDS011;14425;56.136;40.360;2023-05-16T15:03:21;4.45;;;1.63;;
26486;SDS011;14425;56.136;40.360;2023-05-16T15:05:46;2.58;;;1.70;;
26486;SDS011;14425;56.136;40.360;2023-05-16T15:08:12;6.75;;;2.88;;
26486;SDS011;14425;56.136;40.360;2023-05-16T15:10:37;3.95;;;2.30;;
26486;SDS011;14425;56.136;40.360;2023-05-16T15:13:03;3.83;;;1.70;;